Time;durP1;ratioP1;P1;durP2;ratioP2;P2;SDS_P1;SDS_P2;PMS_P1;PMS_P2;Temp;Humidity;BMP_temperature;BMP_pressure;BME280_temperature;BME280_humidity;BME280_pressure;Samples;Min_cycle;Max_cycle;Signal;HPM_P1;HPM_P2
2022/08/19 00:01:29;;;;;;;14.90;13.40;;;;;;;;;;6272622;22;20164;-74
2022/08/19 00:03:55;;;;;;;16.27;13.52;;;;;;;;;;6270899;22;20277;-73
2022/08/19 00:06:21;;;;;;;15.98;12.95;;;;;;;;;;6270674;22;20152;-74
2022/08/19 00:08:46;;;;;;;13.60;12.20;;;;;;;;;;6270904;22;20148;-74
2022/08/19 00:11:11;;;;;;;14.02;12.63;;;;;;;;;;6273442;22;20164;-74
2022/08/19 00:13:37;;;;;;;18.38;14.02;;;;;;;;;;6272564;22;20592;-73
2022/08/19 00:16:03;;;;;;;14.85;12.90;;;;;;;;;;6271377;22;20156;-73
2022/08/19 00:18:28;;;;;;;15.70;14.10;;;;;;;;;;6271646;22;20149;-72
2022/08/19 00:20:53;;;;;;;17.80;15.93;;;;;;;;;;6271595;22;20464;-72
2022/08/19 00:23:18;;;;;;;17.25;15.38;;;;;;;;;;6273936;22;20168;-72
2022/08/19 00:25:44;;;;;;;16.52;14.77;;;;;;;;;;6274096;22;20144;-72
2022/08/19 00:28:09;;;;;;;19.08;17.10;;;;;;;;;;6271244;22;20148;-72
2022/08/19 00:30:34;;;;;;;16.83;14.68;;;;;;;;;;6273149;22;20191;-71
2022/08/19 00:32:59;;;;;;;18.17;15.70;;;;;;;;;;6274222;22;20148;-74
2022/08/19 00:35:27;;;;;;;22.80;16.55;;;;;;;;;;6274442;22;20168;-74
2022/08/19 00:37:52;;;;;;;18.42;16.08;;;;;;;;;;6273225;22;20144;-71
2022/08/19 00:40:19;;;;;;;19.13;15.38;;;;;;;;;;6272730;22;20245;-74
2022/08/19 00:42:44;;;;;;;17.52;15.43;;;;;;;;;;6272745;22;20210;-74
2022/08/19 00:45:13;;;;;;;20.92;17.75;;;;;;;;;;6272391;22;20227;-74
2022/08/19 00:47:38;;;;;;;20.35;18.15;;;;;;;;;;6274651;22;20627;-74
2022/08/19 00:50:04;;;;;;;27.55;22.23;;;;;;;;;;6273648;22;20160;-74
2022/08/19 00:52:33;;;;;;;19.25;17.10;;;;;;;;;;6272692;22;20584;-74
2022/08/19 00:54:59;;;;;;;22.02;16.83;;;;;;;;;;6273790;22;20587;-72
2022/08/19 00:57:34;;;;;;;17.30;14.38;;;;;;;;;;6274308;22;20154;-74
2022/08/19 01:00:00;;;;;;;16.50;13.80;;;;;;;;;;6269540;22;20685;-72
2022/08/19 01:02:26;;;;;;;13.60;12.20;;;;;;;;;;6272224;22;20140;-73
2022/08/19 01:04:51;;;;;;;14.25;12.52;;;;;;;;;;6274263;22;20222;-74
2022/08/19 01:07:17;;;;;;;11.93;10.43;;;;;;;;;;6270472;22;20156;-74
2022/08/19 01:09:43;;;;;;;14.68;12.20;;;;;;;;;;6271373;22;20601;-74
2022/08/19 01:12:08;;;;;;;9.85;8.82;;;;;;;;;;6272252;22;20140;-74
2022/08/19 01:14:34;;;;;;;10.98;9.38;;;;;;;;;;6272564;22;20568;-74
2022/08/19 01:17:00;;;;;;;9.63;8.73;;;;;;;;;;6271580;22;20152;-74
2022/08/19 01:19:31;;;;;;;10.35;9.35;;;;;;;;;;6272636;22;20521;-74
2022/08/19 01:22:02;;;;;;;12.10;8.93;;;;;;;;;;6272504;22;20148;-74
2022/08/19 01:24:27;;;;;;;10.43;8.98;;;;;;;;;;6271911;22;20168;-74
2022/08/19 01:26:52;;;;;;;10.43;9.40;;;;;;;;;;6273893;22;20160;-73
2022/08/19 01:29:18;;;;;;;13.35;10.25;;;;;;;;;;6273112;22;20462;-74
2022/08/19 01:31:43;;;;;;;15.95;14.25;;;;;;;;;;6269995;22;20488;-74
2022/08/19 01:34:08;;;;;;;20.10;16.80;;;;;;;;;;6273167;22;20194;-74
2022/08/19 01:36:35;;;;;;;21.63;17.42;;;;;;;;;;6273349;22;20223;-74
2022/08/19 01:39:02;;;;;;;18.73;16.10;;;;;;;;;;6273981;22;20163;-74
2022/08/19 01:41:27;;;;;;;20.80;17.67;;;;;;;;;;6270184;22;20184;-74
2022/08/19 01:43:53;;;;;;;23.50;17.58;;;;;;;;;;6272923;22;20627;-73
2022/08/19 01:46:19;;;;;;;23.88;18.25;;;;;;;;;;6273571;22;20145;-73
2022/08/19 01:48:44;;;;;;;19.17;15.60;;;;;;;;;;6273512;22;20511;-73
2022/08/19 01:51:10;;;;;;;17.67;15.65;;;;;;;;;;6272600;22;20211;-74
2022/08/19 01:53:35;;;;;;;21.08;15.90;;;;;;;;;;6273940;22;20587;-74
2022/08/19 01:56:00;;;;;;;16.42;14.18;;;;;;;;;;6273817;22;20226;-73
2022/08/19 01:58:31;;;;;;;17.05;14.68;;;;;;;;;;6272110;22;20191;-74
2022/08/19 02:00:57;;;;;;;16.70;13.88;;;;;;;;;;6272548;22;20208;-74
2022/08/19 02:03:23;;;;;;;16.67;14.48;;;;;;;;;;6274126;22;20646;-74
2022/08/19 02:05:53;;;;;;;14.82;13.18;;;;;;;;;;6271463;22;20186;-74
2022/08/19 02:08:18;;;;;;;17.35;15.00;;;;;;;;;;6270123;22;20149;-74
2022/08/19 02:10:43;;;;;;;15.63;13.90;;;;;;;;;;6271926;22;20172;-73
2022/08/19 02:13:09;;;;;;;17.60;14.95;;;;;;;;;;6274102;22;20156;-74
2022/08/19 02:15:34;;;;;;;15.27;12.40;;;;;;;;;;6274343;22;20149;-74
2022/08/19 02:17:59;;;;;;;23.23;17.48;;;;;;;;;;6274028;22;20152;-74
2022/08/19 02:20:25;;;;;;;18.40;15.60;;;;;;;;;;6272621;22;20172;-73
2022/08/19 02:22:50;;;;;;;22.40;17.80;;;;;;;;;;6273391;22;20466;-74
2022/08/19 02:25:15;;;;;;;23.95;18.88;;;;;;;;;;6273960;22;20151;-73
2022/08/19 02:27:41;;;;;;;25.25;19.48;;;;;;;;;;6273468;22;20136;-74
2022/08/19 02:30:07;;;;;;;23.77;19.25;;;;;;;;;;6273716;22;20160;-74
2022/08/19 02:32:33;;;;;;;26.40;20.55;;;;;;;;;;6273236;22;20156;-74
2022/08/19 02:34:58;;;;;;;22.73;18.33;;;;;;;;;;6273760;22;20179;-74
2022/08/19 02:40:14;;;;;;;25.85;18.63;;;;;;;;;;6237982;22;20176;-75
2022/08/19 02:42:40;;;;;;;22.10;18.45;;;;;;;;;;6273179;22;20531;-72
2022/08/19 02:45:06;;;;;;;29.83;20.17;;;;;;;;;;6273553;22;20201;-72
2022/08/19 02:47:32;;;;;;;22.58;17.23;;;;;;;;;;6273337;22;20469;-72
2022/08/19 02:49:57;;;;;;;24.35;17.88;;;;;;;;;;6273564;22;20164;-73
2022/08/19 02:52:23;;;;;;;21.58;18.52;;;;;;;;;;6273637;22;20144;-73
2022/08/19 02:54:48;;;;;;;22.15;16.25;;;;;;;;;;6271809;22;20152;-74
2022/08/19 02:57:13;;;;;;;22.90;16.50;;;;;;;;;;6274004;22;20149;-74
2022/08/19 02:59:39;;;;;;;16.40;14.70;;;;;;;;;;6272980;22;20624;-72
2022/08/19 03:02:04;;;;;;;16.05;14.00;;;;;;;;;;6274769;22;20372;-74
2022/08/19 03:04:30;;;;;;;17.63;14.40;;;;;;;;;;6275572;22;20172;-74
2022/08/19 03:06:56;;;;;;;15.82;13.45;;;;;;;;;;6275505;22;20522;-74
2022/08/19 03:09:21;;;;;;;19.35;14.63;;;;;;;;;;6273144;22;20168;-74
2022/08/19 03:11:47;;;;;;;17.33;14.73;;;;;;;;;;6274776;22;20546;-74
2022/08/19 03:14:13;;;;;;;17.02;14.00;;;;;;;;;;6275304;22;20172;-74
2022/08/19 03:16:46;;;;;;;18.33;15.35;;;;;;;;;;6275506;22;20148;-74
2022/08/19 03:19:12;;;;;;;25.00;17.48;;;;;;;;;;6274601;22;20158;-74
2022/08/19 03:21:37;;;;;;;24.48;17.35;;;;;;;;;;6274564;22;20227;-74
2022/08/19 03:24:05;;;;;;;20.40;16.38;;;;;;;;;;6274545;22;20198;-74
2022/08/19 03:26:30;;;;;;;19.73;16.85;;;;;;;;;;6275056;22;20612;-74
2022/08/19 03:28:56;;;;;;;20.35;16.77;;;;;;;;;;6273637;22;20144;-74
2022/08/19 03:31:24;;;;;;;23.10;17.92;;;;;;;;;;6274517;22;20554;-74
2022/08/19 03:33:50;;;;;;;27.23;20.73;;;;;;;;;;6274516;22;20148;-75
2022/08/19 03:36:17;;;;;;;29.75;21.48;;;;;;;;;;6275143;22;20148;-74
2022/08/19 03:38:44;;;;;;;28.77;21.27;;;;;;;;;;6273475;22;20180;-74
2022/08/19 03:41:15;;;;;;;27.80;19.95;;;;;;;;;;6274602;22;20168;-74
2022/08/19 03:43:40;;;;;;;28.35;22.55;;;;;;;;;;6272625;22;20164;-74
2022/08/19 03:46:07;;;;;;;30.42;21.67;;;;;;;;;;6274897;22;20151;-74
2022/08/19 03:48:33;;;;;;;36.65;26.40;;;;;;;;;;6272637;22;20619;-74
2022/08/19 03:50:59;;;;;;;38.30;24.60;;;;;;;;;;6274399;22;20160;-74
2022/08/19 03:53:25;;;;;;;39.45;27.60;;;;;;;;;;6275002;22;20149;-74
2022/08/19 03:55:51;;;;;;;38.30;26.60;;;;;;;;;;6272998;22;20349;-74
2022/08/19 03:58:16;;;;;;;44.03;28.25;;;;;;;;;;6274682;22;20144;-74
2022/08/19 04:00:42;;;;;;;38.42;27.23;;;;;;;;;;6274022;22;20586;-73
2022/08/19 04:03:07;;;;;;;37.70;25.13;;;;;;;;;;6274896;22;20644;-74
2022/08/19 04:05:33;;;;;;;45.30;29.30;;;;;;;;;;6273004;22;20144;-74
2022/08/19 04:07:58;;;;;;;43.75;29.13;;;;;;;;;;6275301;22;20155;-74
2022/08/19 04:10:24;;;;;;;52.78;32.13;;;;;;;;;;6272345;22;20616;-74
2022/08/19 04:12:49;;;;;;;41.10;28.40;;;;;;;;;;6274317;22;20220;-74
2022/08/19 04:15:15;;;;;;;39.83;26.33;;;;;;;;;;6273407;22;20152;-74
2022/08/19 04:17:40;;;;;;;37.72;26.50;;;;;;;;;;6273910;22;20250;-74
2022/08/19 04:20:05;;;;;;;37.92;25.63;;;;;;;;;;6274088;22;20171;-74
2022/08/19 04:22:31;;;;;;;39.83;26.90;;;;;;;;;;6272234;22;20156;-74
2022/08/19 04:24:56;;;;;;;41.80;26.65;;;;;;;;;;6274125;22;20176;-74
2022/08/19 04:27:21;;;;;;;36.95;25.20;;;;;;;;;;6274664;22;20164;-72
2022/08/19 04:29:47;;;;;;;40.72;25.08;;;;;;;;;;6273773;22;20169;-72
2022/08/19 04:32:14;;;;;;;41.55;26.65;;;;;;;;;;6273158;22;20151;-75
2022/08/19 04:34:40;;;;;;;35.30;25.63;;;;;;;;;;6272093;22;20159;-72
2022/08/19 04:37:11;;;;;;;44.42;27.23;;;;;;;;;;6275462;22;20148;-72
2022/08/19 04:42:39;;;;;;;49.35;30.73;;;;;;;;;;6272851;22;20147;-72
2022/08/19 04:45:05;;;;;;;48.95;30.92;;;;;;;;;;6271530;22;20572;-72
2022/08/19 04:47:32;;;;;;;49.45;31.25;;;;;;;;;;6274068;22;20225;-72
2022/08/19 04:49:57;;;;;;;43.17;28.25;;;;;;;;;;6274155;22;20229;-72
2022/08/19 04:52:23;;;;;;;49.60;31.83;;;;;;;;;;6272840;22;20186;-72
2022/08/19 04:54:48;;;;;;;50.10;33.13;;;;;;;;;;6273777;22;20175;-71
2022/08/19 04:57:13;;;;;;;56.42;34.30;;;;;;;;;;6274008;22;20471;-73
2022/08/19 04:59:39;;;;;;;58.80;35.97;;;;;;;;;;6271671;22;20275;-77
2022/08/19 05:02:04;;;;;;;53.13;34.10;;;;;;;;;;6273688;22;20156;-77
2022/08/19 05:04:33;;;;;;;61.08;38.55;;;;;;;;;;6273317;22;20242;-76
2022/08/19 05:06:58;;;;;;;60.58;36.03;;;;;;;;;;6271077;22;20587;-76
2022/08/19 05:09:23;;;;;;;66.15;40.58;;;;;;;;;;6272620;22;20164;-77
2022/08/19 05:11:49;;;;;;;70.63;40.28;;;;;;;;;;6273359;22;20140;-77
2022/08/19 05:14:14;;;;;;;77.18;41.60;;;;;;;;;;6273608;22;20588;-77
2022/08/19 05:16:40;;;;;;;73.97;41.53;;;;;;;;;;6270648;22;20167;-76
2022/08/19 05:24:34;;;;;;;69.95;41.42;;;;;;;;;;6273895;22;20172;-76
2022/08/19 05:26:59;;;;;;;81.55;45.00;;;;;;;;;;6273763;22;20145;-75
2022/08/19 05:29:26;;;;;;;74.85;41.15;;;;;;;;;;6274034;22;20187;-75
2022/08/19 05:31:51;;;;;;;78.00;45.15;;;;;;;;;;6273501;22;20471;-75
2022/08/19 05:34:17;;;;;;;78.70;43.28;;;;;;;;;;6273363;22;20162;-74
2022/08/19 05:36:44;;;;;;;78.00;43.80;;;;;;;;;;6273870;22;20140;-75
2022/08/19 05:39:11;;;;;;;74.70;42.63;;;;;;;;;;6273258;22;20202;-75
2022/08/19 05:41:40;;;;;;;74.00;41.30;;;;;;;;;;6272300;22;20228;-74
2022/08/19 05:44:08;;;;;;;66.15;40.97;;;;;;;;;;6273609;22;20564;-75
2022/08/19 05:46:34;;;;;;;69.32;39.80;;;;;;;;;;6270918;22;20152;-75
2022/08/19 05:48:59;;;;;;;65.75;39.63;;;;;;;;;;6273427;22;20163;-75
2022/08/19 05:51:25;;;;;;;58.63;36.42;;;;;;;;;;6273685;22;20148;-75
2022/08/19 05:53:51;;;;;;;57.90;35.80;;;;;;;;;;6272683;22;20174;-75
2022/08/19 05:56:17;;;;;;;57.63;37.22;;;;;;;;;;6274037;22;20152;-76
2022/08/19 05:58:44;;;;;;;57.90;35.65;;;;;;;;;;6272779;22;20148;-75
2022/08/19 06:01:11;;;;;;;51.85;31.90;;;;;;;;;;6269815;22;20188;-75
2022/08/19 06:03:37;;;;;;;50.75;31.50;;;;;;;;;;6272423;22;20522;-75
2022/08/19 06:06:03;;;;;;;49.15;29.88;;;;;;;;;;6273339;22;20659;-75
2022/08/19 06:08:28;;;;;;;54.55;33.17;;;;;;;;;;6273201;22;20596;-75
2022/08/19 06:10:54;;;;;;;47.72;30.30;;;;;;;;;;6272930;22;20157;-75
2022/08/19 06:13:19;;;;;;;53.55;31.92;;;;;;;;;;6273973;22;20152;-75
2022/08/19 06:15:46;;;;;;;53.67;32.90;;;;;;;;;;6272103;22;20152;-74
2022/08/19 06:18:12;;;;;;;52.03;31.80;;;;;;;;;;6274073;22;20155;-74
2022/08/19 06:20:37;;;;;;;50.90;32.75;;;;;;;;;;6272527;22;20175;-75
2022/08/19 06:23:02;;;;;;;56.97;33.35;;;;;;;;;;6274351;22;20148;-75
2022/08/19 06:25:27;;;;;;;54.53;32.30;;;;;;;;;;6273885;22;20584;-75
2022/08/19 06:27:53;;;;;;;51.60;33.00;;;;;;;;;;6274375;22;20144;-75
2022/08/19 06:30:18;;;;;;;53.67;32.40;;;;;;;;;;6273393;22;20401;-75
2022/08/19 06:32:43;;;;;;;46.03;29.80;;;;;;;;;;6272532;22;20140;-74
2022/08/19 06:35:09;;;;;;;42.42;27.38;;;;;;;;;;6274010;22;20148;-74
2022/08/19 06:37:35;;;;;;;41.92;28.30;;;;;;;;;;6274715;22;20140;-74
2022/08/19 06:40:00;;;;;;;39.33;26.00;;;;;;;;;;6275986;22;20168;-75
2022/08/19 06:42:26;;;;;;;37.88;26.15;;;;;;;;;;6274599;22;20144;-75
2022/08/19 06:44:51;;;;;;;41.33;27.67;;;;;;;;;;6275084;22;20183;-75
2022/08/19 06:47:18;;;;;;;44.63;28.50;;;;;;;;;;6275505;22;20148;-75
2022/08/19 06:49:43;;;;;;;42.30;26.40;;;;;;;;;;6275603;22;20172;-74
2022/08/19 06:52:11;;;;;;;42.10;27.45;;;;;;;;;;6275352;22;20654;-75
2022/08/19 06:54:36;;;;;;;37.33;25.70;;;;;;;;;;6276379;22;20231;-74
2022/08/19 06:57:02;;;;;;;36.80;26.57;;;;;;;;;;6275642;22;20180;-74
2022/08/19 06:59:27;;;;;;;36.38;24.83;;;;;;;;;;6275697;22;20385;-74
2022/08/19 07:01:54;;;;;;;42.97;25.90;;;;;;;;;;6273636;22;20611;-75
2022/08/19 07:04:24;;;;;;;38.25;26.58;;;;;;;;;;6274057;22;20172;-75
2022/08/19 07:06:50;;;;;;;42.67;27.33;;;;;;;;;;6275645;22;20210;-74
2022/08/19 07:09:17;;;;;;;36.15;25.67;;;;;;;;;;6274091;22;20149;-68
2022/08/19 07:11:49;;;;;;;39.15;26.80;;;;;;;;;;6274348;22;20778;-72
2022/08/19 07:14:17;;;;;;;34.45;26.05;;;;;;;;;;6274977;22;20144;-74
2022/08/19 07:16:42;;;;;;;36.17;27.25;;;;;;;;;;6275654;22;20171;-74
2022/08/19 07:19:08;;;;;;;44.37;27.67;;;;;;;;;;6276029;22;20152;-75
2022/08/19 07:21:33;;;;;;;40.03;26.63;;;;;;;;;;6275158;22;20820;-75
2022/08/19 07:23:58;;;;;;;36.75;26.30;;;;;;;;;;6275895;22;20409;-75
2022/08/19 07:26:26;;;;;;;33.03;26.33;;;;;;;;;;6275680;22;20524;-75
2022/08/19 07:28:51;;;;;;;38.15;27.23;;;;;;;;;;6275807;22;20141;-74
2022/08/19 07:31:18;;;;;;;33.88;26.38;;;;;;;;;;6274554;22;20513;-75
2022/08/19 07:33:47;;;;;;;30.88;24.88;;;;;;;;;;6275797;22;20152;-75
2022/08/19 07:36:13;;;;;;;33.85;26.85;;;;;;;;;;6275669;22;20144;-74
2022/08/19 07:38:43;;;;;;;34.95;25.83;;;;;;;;;;6275862;22;20431;-75
2022/08/19 07:41:13;;;;;;;38.28;25.55;;;;;;;;;;6275120;22;20254;-75
2022/08/19 07:43:38;;;;;;;32.80;23.42;;;;;;;;;;6273446;22;20697;-74
2022/08/19 07:46:04;;;;;;;36.13;23.92;;;;;;;;;;6274754;22;20140;-74
2022/08/19 07:48:29;;;;;;;27.70;23.27;;;;;;;;;;6275429;22;20167;-74
2022/08/19 07:50:56;;;;;;;34.20;23.98;;;;;;;;;;6274701;22;20165;-74
2022/08/19 07:53:21;;;;;;;30.73;21.50;;;;;;;;;;6275535;22;20155;-74
2022/08/19 07:55:47;;;;;;;27.98;22.52;;;;;;;;;;6275491;22;20148;-74
2022/08/19 07:58:14;;;;;;;32.75;23.52;;;;;;;;;;6275558;22;20148;-74
2022/08/19 08:00:40;;;;;;;30.55;22.90;;;;;;;;;;6274818;22;20192;-74
2022/08/19 08:03:05;;;;;;;28.95;21.98;;;;;;;;;;6271633;22;20162;-74
2022/08/19 08:10:59;;;;;;;31.23;22.45;;;;;;;;;;6273051;22;20654;-73
2022/08/19 08:13:26;;;;;;;33.08;24.25;;;;;;;;;;6275020;22;20145;-73
2022/08/19 08:15:51;;;;;;;30.85;22.90;;;;;;;;;;6274930;22;20423;-73
2022/08/19 08:18:17;;;;;;;31.63;22.95;;;;;;;;;;6275169;22;20148;-73
2022/08/19 08:20:42;;;;;;;29.27;21.95;;;;;;;;;;6274470;22;20630;-74
2022/08/19 08:23:23;;;;;;;31.60;23.10;;;;;;;;;;6275229;22;20193;-73
2022/08/19 08:25:49;;;;;;;32.90;21.98;;;;;;;;;;6275191;22;20373;-73
2022/08/19 08:28:14;;;;;;;24.25;21.40;;;;;;;;;;6273511;22;20148;-74
2022/08/19 08:30:41;;;;;;;24.83;21.23;;;;;;;;;;6273131;22;20543;-74
2022/08/19 08:33:07;;;;;;;23.08;20.63;;;;;;;;;;6275278;22;20588;-73
2022/08/19 08:35:33;;;;;;;24.63;19.73;;;;;;;;;;6275235;22;20205;-73
2022/08/19 08:37:58;;;;;;;26.27;18.75;;;;;;;;;;6275424;22;20145;-73
2022/08/19 08:40:29;;;;;;;23.88;19.67;;;;;;;;;;6274917;22;20164;-73
2022/08/19 08:43:01;;;;;;;24.35;18.20;;;;;;;;;;6273613;22;20152;-74
2022/08/19 08:45:28;;;;;;;26.90;20.13;;;;;;;;;;6275183;22;20206;-74
2022/08/19 08:47:56;;;;;;;24.92;19.63;;;;;;;;;;6274962;22;20563;-73
2022/08/19 08:50:35;;;;;;;32.95;22.00;;;;;;;;;;6274793;22;20186;-73
2022/08/19 08:53:00;;;;;;;25.95;20.77;;;;;;;;;;6274747;22;20128;-73
2022/08/19 08:55:27;;;;;;;27.88;22.58;;;;;;;;;;6274878;22;20234;-74
2022/08/19 08:57:55;;;;;;;30.73;22.13;;;;;;;;;;6274673;22;20152;-74
2022/08/19 09:00:22;;;;;;;28.02;22.92;;;;;;;;;;6274594;22;20620;-73
2022/08/19 09:02:47;;;;;;;25.38;21.67;;;;;;;;;;6274413;22;20164;-74
2022/08/19 09:05:13;;;;;;;26.97;23.43;;;;;;;;;;6274820;22;20175;-74
2022/08/19 09:07:44;;;;;;;29.67;23.35;;;;;;;;;;6274528;22;20429;-73
2022/08/19 09:10:09;;;;;;;29.38;21.48;;;;;;;;;;6274642;22;20247;-74
2022/08/19 09:12:43;;;;;;;25.50;21.60;;;;;;;;;;6274190;22;20203;-74
2022/08/19 09:15:10;;;;;;;24.00;20.80;;;;;;;;;;6273138;22;20732;-74
2022/08/19 09:17:35;;;;;;;29.00;22.30;;;;;;;;;;6274428;22;20145;-75
2022/08/19 09:20:04;;;;;;;24.02;19.05;;;;;;;;;;6272901;22;20218;-74
2022/08/19 09:22:29;;;;;;;25.55;19.98;;;;;;;;;;6272134;22;20176;-74
2022/08/19 09:24:55;;;;;;;22.25;19.83;;;;;;;;;;6274352;22;20221;-74
2022/08/19 09:27:23;;;;;;;24.20;20.77;;;;;;;;;;6274274;22;20201;-74
2022/08/19 09:29:48;;;;;;;23.33;20.15;;;;;;;;;;6274465;22;20679;-74
2022/08/19 09:32:14;;;;;;;24.43;21.10;;;;;;;;;;6274117;22;20198;-74
2022/08/19 09:34:39;;;;;;;21.88;19.77;;;;;;;;;;6274592;22;20419;-74
2022/08/19 09:37:05;;;;;;;22.55;19.15;;;;;;;;;;6274255;22;20498;-74
2022/08/19 09:39:30;;;;;;;25.10;19.38;;;;;;;;;;6272870;22;20204;-74
2022/08/19 09:41:55;;;;;;;25.77;18.83;;;;;;;;;;6273881;22;20168;-73
2022/08/19 09:44:21;;;;;;;26.23;19.25;;;;;;;;;;6273985;22;20176;-73
2022/08/19 09:46:49;;;;;;;28.87;20.43;;;;;;;;;;6274548;22;20739;-73
2022/08/19 09:49:18;;;;;;;20.73;18.13;;;;;;;;;;6274378;22;20365;-73
2022/08/19 09:51:43;;;;;;;24.75;19.33;;;;;;;;;;6271848;22;20235;-74
2022/08/19 09:54:08;;;;;;;26.30;20.40;;;;;;;;;;6274343;22;20163;-74
2022/08/19 09:56:34;;;;;;;27.00;19.73;;;;;;;;;;6274225;22;20357;-74
2022/08/19 09:58:59;;;;;;;31.33;23.88;;;;;;;;;;6272552;22;20202;-74
2022/08/19 10:01:25;;;;;;;31.05;22.83;;;;;;;;;;6273673;22;20241;-74
2022/08/19 10:03:53;;;;;;;27.27;21.58;;;;;;;;;;6274114;22;20255;-74
2022/08/19 10:06:18;;;;;;;29.45;22.52;;;;;;;;;;6274149;22;20151;-74
2022/08/19 10:08:44;;;;;;;32.97;22.17;;;;;;;;;;6274208;22;20145;-74
2022/08/19 10:11:09;;;;;;;28.30;22.60;;;;;;;;;;6273829;22;20243;-74
2022/08/19 10:13:35;;;;;;;30.52;21.63;;;;;;;;;;6276222;22;20145;-74
2022/08/19 10:16:05;;;;;;;31.23;20.70;;;;;;;;;;6276204;22;20495;-74
2022/08/19 10:18:33;;;;;;;30.75;22.98;;;;;;;;;;6274808;22;20156;-74
2022/08/19 10:21:07;;;;;;;28.60;22.58;;;;;;;;;;6275755;22;20180;-73
2022/08/19 10:23:32;;;;;;;28.17;20.90;;;;;;;;;;6276118;22;20247;-73
2022/08/19 10:25:59;;;;;;;30.57;21.10;;;;;;;;;;6276389;22;20175;-74
2022/08/19 10:28:24;;;;;;;25.35;20.00;;;;;;;;;;6276212;22;20358;-74
2022/08/19 10:30:49;;;;;;;28.47;20.67;;;;;;;;;;6274110;22;20171;-74
2022/08/19 10:33:14;;;;;;;25.17;21.50;;;;;;;;;;6273957;22;20826;-74
2022/08/19 10:35:40;;;;;;;27.80;19.83;;;;;;;;;;6276006;22;20358;-74
2022/08/19 10:38:05;;;;;;;27.57;21.00;;;;;;;;;;6275809;22;20236;-74
2022/08/19 10:40:30;;;;;;;24.03;19.67;;;;;;;;;;6275878;22;20415;-74
2022/08/19 10:42:55;;;;;;;25.27;19.30;;;;;;;;;;6274042;22;20144;-74
2022/08/19 10:45:25;;;;;;;25.73;20.60;;;;;;;;;;6276136;22;20880;-74
2022/08/19 10:47:50;;;;;;;25.00;19.88;;;;;;;;;;6274125;22;20156;-74
2022/08/19 10:53:02;;;;;;;19.95;17.70;;;;;;;;;;6275703;22;20356;-74
2022/08/19 10:58:13;;;;;;;21.33;19.02;;;;;;;;;;6275928;22;20474;-74
2022/08/19 11:00:40;;;;;;;18.58;16.67;;;;;;;;;;6275225;22;20387;-69
2022/08/19 11:03:05;;;;;;;17.92;15.55;;;;;;;;;;6273703;22;20431;-69
2022/08/19 11:05:30;;;;;;;20.98;18.77;;;;;;;;;;6272694;22;20149;-68
2022/08/19 11:07:55;;;;;;;20.73;18.37;;;;;;;;;;6274369;22;20467;-68
2022/08/19 11:10:21;;;;;;;25.37;19.27;;;;;;;;;;6272521;22;20160;-68
2022/08/19 11:12:46;;;;;;;19.90;17.27;;;;;;;;;;6273621;22;20144;-68
2022/08/19 11:15:12;;;;;;;20.88;17.42;;;;;;;;;;6274791;22;20603;-68
2022/08/19 11:17:42;;;;;;;18.87;16.10;;;;;;;;;;6274287;22;20156;-68
2022/08/19 11:20:08;;;;;;;18.85;16.80;;;;;;;;;;6274022;22;20164;-68
2022/08/19 11:22:33;;;;;;;15.40;13.77;;;;;;;;;;6273487;22;20194;-68
2022/08/19 11:24:59;;;;;;;15.25;13.25;;;;;;;;;;6272237;22;20172;-68
2022/08/19 11:27:24;;;;;;;17.83;15.77;;;;;;;;;;6272252;22;20180;-68
2022/08/19 11:29:49;;;;;;;13.63;12.07;;;;;;;;;;6274320;22;20218;-68
2022/08/19 11:32:15;;;;;;;9.00;8.20;;;;;;;;;;6273793;22;20360;-67
2022/08/19 11:34:40;;;;;;;9.65;8.65;;;;;;;;;;6274131;22;20362;-69
2022/08/19 11:37:06;;;;;;;9.35;7.57;;;;;;;;;;6273885;22;20344;-68
2022/08/19 11:39:31;;;;;;;9.20;7.07;;;;;;;;;;6272194;22;20205;-68
2022/08/19 11:42:00;;;;;;;10.27;7.68;;;;;;;;;;6273540;22;20369;-68
2022/08/19 11:44:26;;;;;;;7.93;7.07;;;;;;;;;;6273801;22;20164;-68
2022/08/19 11:46:52;;;;;;;9.18;7.03;;;;;;;;;;6273749;22;20564;-69
2022/08/19 11:49:18;;;;;;;12.98;7.90;;;;;;;;;;6271722;22;20239;-68
2022/08/19 11:51:44;;;;;;;12.75;7.85;;;;;;;;;;6271703;22;20660;-68
2022/08/19 11:54:09;;;;;;;11.00;7.63;;;;;;;;;;6273941;22;20251;-68
2022/08/19 11:56:36;;;;;;;8.27;7.45;;;;;;;;;;6274133;22;20148;-68
2022/08/19 11:59:02;;;;;;;9.32;7.00;;;;;;;;;;6273980;22;20153;-68
2022/08/19 12:01:27;;;;;;;7.68;5.88;;;;;;;;;;6273302;22;20650;-68
2022/08/19 12:03:53;;;;;;;8.33;5.97;;;;;;;;;;6273679;22;20168;-68
2022/08/19 12:06:23;;;;;;;7.93;5.80;;;;;;;;;;6273633;22;20773;-68
2022/08/19 12:08:48;;;;;;;8.57;5.97;;;;;;;;;;6273860;22;20141;-68
2022/08/19 12:11:13;;;;;;;6.03;5.32;;;;;;;;;;6273377;22;20187;-68
2022/08/19 12:13:39;;;;;;;5.65;4.45;;;;;;;;;;6273490;22;20223;-68
2022/08/19 12:16:12;;;;;;;5.70;4.35;;;;;;;;;;6274407;22;20206;-68
2022/08/19 12:18:37;;;;;;;9.50;4.95;;;;;;;;;;6273533;22;20180;-68
2022/08/19 12:21:03;;;;;;;5.68;4.32;;;;;;;;;;6273344;22;20168;-68
2022/08/19 12:23:28;;;;;;;8.43;5.63;;;;;;;;;;6273457;22;20168;-68
2022/08/19 12:25:54;;;;;;;11.32;5.97;;;;;;;;;;6273881;22;20514;-68
2022/08/19 12:28:20;;;;;;;6.88;6.18;;;;;;;;;;6273452;22;20140;-68
2022/08/19 12:30:46;;;;;;;8.65;7.80;;;;;;;;;;6273315;22;20628;-69
2022/08/19 12:33:13;;;;;;;9.73;8.45;;;;;;;;;;6272933;22;20145;-69
2022/08/19 12:35:42;;;;;;;9.02;8.13;;;;;;;;;;6271805;22;20154;-68
2022/08/19 12:38:07;;;;;;;8.13;7.28;;;;;;;;;;6273416;22;20147;-68
2022/08/19 12:40:33;;;;;;;8.60;6.70;;;;;;;;;;6272335;22;20188;-67
2022/08/19 12:42:58;;;;;;;11.53;7.50;;;;;;;;;;6272105;22;20140;-68
2022/08/19 12:45:24;;;;;;;9.40;6.88;;;;;;;;;;6271657;22;20409;-68
2022/08/19 12:47:49;;;;;;;8.15;6.32;;;;;;;;;;6271576;22;20175;-68
2022/08/19 12:50:15;;;;;;;7.15;6.45;;;;;;;;;;6273417;22;20175;-68
2022/08/19 12:52:41;;;;;;;7.45;6.22;;;;;;;;;;6272744;22;20144;-68
2022/08/19 12:55:07;;;;;;;6.03;4.90;;;;;;;;;;6273662;22;20144;-68
2022/08/19 12:57:35;;;;;;;4.47;4.07;;;;;;;;;;6273478;22;20591;-68
2022/08/19 13:00:04;;;;;;;6.85;4.90;;;;;;;;;;6273357;22;20180;-68
2022/08/19 13:02:31;;;;;;;6.18;4.40;;;;;;;;;;6297239;22;20156;-68
2022/08/19 13:04:57;;;;;;;5.57;4.50;;;;;;;;;;6271758;22;20178;-67
2022/08/19 13:07:22;;;;;;;7.22;4.40;;;;;;;;;;6273437;22;20144;-68
2022/08/19 13:09:50;;;;;;;6.57;4.23;;;;;;;;;;6273520;22;20160;-68
2022/08/19 13:12:15;;;;;;;7.47;4.63;;;;;;;;;;6273020;22;20358;-68
2022/08/19 13:14:41;;;;;;;4.27;3.87;;;;;;;;;;6273287;22;20274;-68
2022/08/19 13:17:06;;;;;;;7.72;4.82;;;;;;;;;;6273007;22;20381;-68
2022/08/19 13:19:32;;;;;;;7.25;4.80;;;;;;;;;;6273173;22;20149;-68
2022/08/19 13:21:58;;;;;;;4.80;3.55;;;;;;;;;;6272488;22;20227;-68
2022/08/19 13:24:23;;;;;;;3.72;3.40;;;;;;;;;;6273075;22;20216;-68
2022/08/19 13:26:48;;;;;;;6.10;4.13;;;;;;;;;;6273225;22;20141;-67
2022/08/19 13:34:41;;;;;;;4.15;3.00;;;;;;;;;;6272304;22;20171;-68
2022/08/19 13:37:07;;;;;;;2.97;2.77;;;;;;;;;;6272735;22;20149;-68
2022/08/19 13:39:33;;;;;;;4.80;3.13;;;;;;;;;;6270364;22;20826;-69
2022/08/19 13:42:00;;;;;;;5.50;4.18;;;;;;;;;;6272356;22;20148;-69
2022/08/19 13:44:26;;;;;;;4.80;4.40;;;;;;;;;;6272357;22;20172;-69
2022/08/19 13:46:52;;;;;;;3.92;3.63;;;;;;;;;;6270733;22;20152;-70
2022/08/19 13:49:17;;;;;;;4.43;3.55;;;;;;;;;;6272227;22;20141;-69
2022/08/19 13:51:43;;;;;;;4.13;3.53;;;;;;;;;;6271163;22;20147;-71
2022/08/19 13:54:09;;;;;;;3.85;3.50;;;;;;;;;;6271932;22;20588;-69
2022/08/19 13:56:35;;;;;;;3.97;3.70;;;;;;;;;;6271853;22;20541;-69
2022/08/19 13:59:00;;;;;;;4.18;3.88;;;;;;;;;;6270754;22;20155;-68
2022/08/19 14:01:26;;;;;;;3.95;3.65;;;;;;;;;;6266309;22;20184;-69
2022/08/19 14:03:51;;;;;;;4.95;4.50;;;;;;;;;;6263024;22;20615;-69
2022/08/19 14:06:16;;;;;;;4.90;4.50;;;;;;;;;;6271595;22;20224;-69
2022/08/19 14:08:42;;;;;;;4.70;4.40;;;;;;;;;;6272900;22;20253;-69
2022/08/19 14:11:08;;;;;;;6.45;4.60;;;;;;;;;;6272308;22;20381;-69
2022/08/19 14:13:33;;;;;;;5.25;4.75;;;;;;;;;;6272670;22;20144;-69
2022/08/19 14:15:59;;;;;;;5.45;4.95;;;;;;;;;;6272035;22;20148;-69
2022/08/19 14:18:24;;;;;;;5.00;4.43;;;;;;;;;;6270156;22;20247;-69
2022/08/19 14:20:50;;;;;;;4.93;4.50;;;;;;;;;;6271564;22;20175;-69
2022/08/19 14:23:15;;;;;;;4.20;3.80;;;;;;;;;;6272473;22;20250;-69
2022/08/19 14:25:40;;;;;;;4.07;3.20;;;;;;;;;;6272008;22;20144;-69
2022/08/19 14:28:07;;;;;;;3.45;3.15;;;;;;;;;;6272262;22;20499;-69
2022/08/19 14:30:33;;;;;;;3.53;3.00;;;;;;;;;;6272359;22;20584;-69
2022/08/19 14:33:00;;;;;;;5.53;3.70;;;;;;;;;;6272867;22;20646;-69
2022/08/19 14:35:26;;;;;;;5.10;4.60;;;;;;;;;;6268836;22;20148;-69
2022/08/19 14:37:55;;;;;;;4.82;4.40;;;;;;;;;;6271010;22;20149;-69
2022/08/19 14:40:22;;;;;;;6.63;5.20;;;;;;;;;;6272847;22;20172;-69
2022/08/19 14:42:48;;;;;;;6.75;5.85;;;;;;;;;;6272852;22;20176;-69
2022/08/19 14:45:13;;;;;;;5.85;4.95;;;;;;;;;;6270871;22;20624;-69